sensor_id;sensor_type;location;lat;lon;timestamp;P1;durP1;ratioP1;P2;durP2;ratioP2
19183;SDS011;9724;51.194;6.856;2023-04-20T00:02:06;5.27;;;3.60;;
19183;SDS011;9724;51.194;6.856;2023-04-20T00:04:33;7.57;;;3.50;;
19183;SDS011;9724;51.194;6.856;2023-04-20T00:06:59;4.50;;;3.27;;
19183;SDS011;9724;51.194;6.856;2023-04-20T00:09:26;3.33;;;3.00;;
19183;SDS011;9724;51.194;6.856;2023-04-20T00:11:52;3.70;;;3.33;;
19183;SDS011;9724;51.194;6.856;2023-04-20T00:14:18;8.40;;;2.93;;
19183;SDS011;9724;51.194;6.856;2023-04-20T00:16:45;7.47;;;3.50;;
19183;SDS011;9724;51.194;6.856;2023-04-20T00:19:11;5.13;;;3.30;;
19183;SDS011;9724;51.194;6.856;2023-04-20T00:21:37;5.07;;;3.50;;
19183;SDS011;9724;51.194;6.856;2023-04-20T00:24:04;4.87;;;3.23;;
19183;SDS011;9724;51.194;6.856;2023-04-20T00:26:31;4.30;;;3.20;;
19183;SDS011;9724;51.194;6.856;2023-04-20T00:28:57;8.43;;;2.73;;
19183;SDS011;9724;51.194;6.856;2023-04-20T00:31:23;7.47;;;3.90;;
19183;SDS011;9724;51.194;6.856;2023-04-20T00:33:50;5.73;;;3.27;;
19183;SDS011;9724;51.194;6.856;2023-04-20T00:36:16;5.73;;;3.10;;
19183;SDS011;9724;51.194;6.856;2023-04-20T00:38:42;4.40;;;3.10;;
19183;SDS011;9724;51.194;6.856;2023-04-20T00:41:09;5.57;;;3.30;;
19183;SDS011;9724;51.194;6.856;2023-04-20T00:43:35;6.50;;;3.17;;
19183;SDS011;9724;51.194;6.856;2023-04-20T00:46:02;7.03;;;3.23;;
19183;SDS011;9724;51.194;6.856;2023-04-20T00:48:28;6.43;;;3.20;;
19183;SDS011;9724;51.194;6.856;2023-04-20T00:50:54;5.53;;;3.10;;
19183;SDS011;9724;51.194;6.856;2023-04-20T00:53:21;8.77;;;2.80;;
19183;SDS011;9724;51.194;6.856;2023-04-20T00:55:47;9.30;;;3.10;;
19183;SDS011;9724;51.194;6.856;2023-04-20T00:58:14;6.63;;;2.93;;
19183;SDS011;9724;51.194;6.856;2023-04-20T01:00:40;8.53;;;2.83;;
19183;SDS011;9724;51.194;6.856;2023-04-20T01:03:06;7.00;;;2.60;;
19183;SDS011;9724;51.194;6.856;2023-04-20T01:05:33;7.10;;;3.20;;
19183;SDS011;9724;51.194;6.856;2023-04-20T01:07:59;9.40;;;2.87;;
19183;SDS011;9724;51.194;6.856;2023-04-20T01:10:25;4.03;;;2.93;;
19183;SDS011;9724;51.194;6.856;2023-04-20T01:12:52;4.03;;;3.00;;
19183;SDS011;9724;51.194;6.856;2023-04-20T01:15:18;8.53;;;2.73;;
19183;SDS011;9724;51.194;6.856;2023-04-20T01:17:45;10.87;;;3.10;;
19183;SDS011;9724;51.194;6.856;2023-04-20T01:20:11;3.80;;;2.80;;
19183;SDS011;9724;51.194;6.856;2023-04-20T01:22:42;3.87;;;2.70;;
19183;SDS011;9724;51.194;6.856;2023-04-20T01:25:09;6.20;;;3.27;;
19183;SDS011;9724;51.194;6.856;2023-04-20T01:27:35;5.87;;;3.10;;
19183;SDS011;9724;51.194;6.856;2023-04-20T01:30:01;7.20;;;3.50;;
19183;SDS011;9724;51.194;6.856;2023-04-20T01:32:27;5.00;;;3.30;;
19183;SDS011;9724;51.194;6.856;2023-04-20T01:34:53;5.13;;;3.03;;
19183;SDS011;9724;51.194;6.856;2023-04-20T01:37:20;6.97;;;3.20;;
19183;SDS011;9724;51.194;6.856;2023-04-20T01:39:46;6.17;;;2.90;;
19183;SDS011;9724;51.194;6.856;2023-04-20T01:42:13;11.33;;;3.33;;
19183;SDS011;9724;51.194;6.856;2023-04-20T01:44:39;4.17;;;3.20;;
19183;SDS011;9724;51.194;6.856;2023-04-20T01:47:05;6.13;;;3.33;;
19183;SDS011;9724;51.194;6.856;2023-04-20T01:49:31;4.97;;;3.30;;
19183;SDS011;9724;51.194;6.856;2023-04-20T01:51:57;7.33;;;3.00;;
19183;SDS011;9724;51.194;6.856;2023-04-20T01:54:24;4.47;;;3.10;;
19183;SDS011;9724;51.194;6.856;2023-04-20T01:56:50;6.77;;;2.90;;
19183;SDS011;9724;51.194;6.856;2023-04-20T01:59:17;4.37;;;2.80;;
19183;SDS011;9724;51.194;6.856;2023-04-20T02:01:43;4.47;;;2.80;;
19183;SDS011;9724;51.194;6.856;2023-04-20T02:04:09;6.53;;;3.20;;
19183;SDS011;9724;51.194;6.856;2023-04-20T02:06:35;6.00;;;3.00;;
19183;SDS011;9724;51.194;6.856;2023-04-20T02:09:01;3.93;;;2.97;;
19183;SDS011;9724;51.194;6.856;2023-04-20T02:11:28;2.97;;;2.50;;
19183;SDS011;9724;51.194;6.856;2023-04-20T02:13:55;7.67;;;2.90;;
19183;SDS011;9724;51.194;6.856;2023-04-20T02:16:21;4.90;;;2.40;;
19183;SDS011;9724;51.194;6.856;2023-04-20T02:18:48;5.43;;;2.87;;
19183;SDS011;9724;51.194;6.856;2023-04-20T02:21:14;9.07;;;2.60;;
19183;SDS011;9724;51.194;6.856;2023-04-20T02:23:40;5.53;;;2.70;;
19183;SDS011;9724;51.194;6.856;2023-04-20T02:26:06;4.73;;;2.97;;
19183;SDS011;9724;51.194;6.856;2023-04-20T02:28:32;3.63;;;2.80;;
19183;SDS011;9724;51.194;6.856;2023-04-20T02:30:59;4.60;;;3.00;;
19183;SDS011;9724;51.194;6.856;2023-04-20T02:33:26;4.77;;;2.97;;
19183;SDS011;9724;51.194;6.856;2023-04-20T02:35:52;4.30;;;2.80;;
19183;SDS011;9724;51.194;6.856;2023-04-20T02:38:19;8.13;;;3.03;;
19183;SDS011;9724;51.194;6.856;2023-04-20T02:40:45;6.67;;;2.80;;
19183;SDS011;9724;51.194;6.856;2023-04-20T02:43:11;6.77;;;2.80;;
19183;SDS011;9724;51.194;6.856;2023-04-20T02:45:37;4.47;;;2.83;;
19183;SDS011;9724;51.194;6.856;2023-04-20T02:48:05;3.77;;;3.00;;
19183;SDS011;9724;51.194;6.856;2023-04-20T02:50:31;3.60;;;2.67;;
19183;SDS011;9724;51.194;6.856;2023-04-20T02:52:57;9.17;;;2.70;;
19183;SDS011;9724;51.194;6.856;2023-04-20T02:55:23;4.17;;;2.90;;
19183;SDS011;9724;51.194;6.856;2023-04-20T02:57:50;10.17;;;3.20;;
19183;SDS011;9724;51.194;6.856;2023-04-20T03:00:16;4.80;;;2.93;;
19183;SDS011;9724;51.194;6.856;2023-04-20T03:02:43;4.67;;;2.87;;
19183;SDS011;9724;51.194;6.856;2023-04-20T03:05:10;3.40;;;2.60;;
19183;SDS011;9724;51.194;6.856;2023-04-20T03:07:36;7.90;;;2.87;;
19183;SDS011;9724;51.194;6.856;2023-04-20T03:10:03;3.37;;;2.93;;
19183;SDS011;9724;51.194;6.856;2023-04-20T03:12:30;9.50;;;3.10;;
19183;SDS011;9724;51.194;6.856;2023-04-20T03:14:57;11.57;;;3.53;;
19183;SDS011;9724;51.194;6.856;2023-04-20T03:17:23;4.37;;;2.70;;
19183;SDS011;9724;51.194;6.856;2023-04-20T03:19:49;8.77;;;3.10;;
19183;SDS011;9724;51.194;6.856;2023-04-20T03:22:16;6.47;;;3.27;;
19183;SDS011;9724;51.194;6.856;2023-04-20T03:24:43;7.10;;;2.83;;
19183;SDS011;9724;51.194;6.856;2023-04-20T03:27:10;6.63;;;2.93;;
19183;SDS011;9724;51.194;6.856;2023-04-20T03:29:36;3.60;;;2.60;;
19183;SDS011;9724;51.194;6.856;2023-04-20T03:32:02;6.93;;;3.00;;
19183;SDS011;9724;51.194;6.856;2023-04-20T03:34:28;5.83;;;3.17;;
19183;SDS011;9724;51.194;6.856;2023-04-20T03:36:54;6.73;;;2.97;;
19183;SDS011;9724;51.194;6.856;2023-04-20T03:39:21;4.40;;;2.90;;
19183;SDS011;9724;51.194;6.856;2023-04-20T03:41:47;10.87;;;3.20;;
19183;SDS011;9724;51.194;6.856;2023-04-20T03:44:13;2.97;;;2.70;;
19183;SDS011;9724;51.194;6.856;2023-04-20T03:46:39;10.33;;;3.00;;
19183;SDS011;9724;51.194;6.856;2023-04-20T03:49:06;6.30;;;2.90;;
19183;SDS011;9724;51.194;6.856;2023-04-20T03:51:32;6.03;;;2.97;;
19183;SDS011;9724;51.194;6.856;2023-04-20T03:53:58;4.33;;;2.60;;
19183;SDS011;9724;51.194;6.856;2023-04-20T03:56:25;5.93;;;3.00;;
19183;SDS011;9724;51.194;6.856;2023-04-20T03:58:51;4.43;;;2.60;;
19183;SDS011;9724;51.194;6.856;2023-04-20T04:01:17;4.30;;;2.70;;
19183;SDS011;9724;51.194;6.856;2023-04-20T04:03:43;8.47;;;2.83;;
19183;SDS011;9724;51.194;6.856;2023-04-20T04:06:10;12.07;;;3.17;;
19183;SDS011;9724;51.194;6.856;2023-04-20T04:08:36;4.87;;;3.33;;
19183;SDS011;9724;51.194;6.856;2023-04-20T04:11:02;7.03;;;3.10;;
19183;SDS011;9724;51.194;6.856;2023-04-20T04:13:29;5.93;;;3.23;;
19183;SDS011;9724;51.194;6.856;2023-04-20T04:15:58;3.43;;;2.80;;
19183;SDS011;9724;51.194;6.856;2023-04-20T04:18:24;5.87;;;2.93;;
19183;SDS011;9724;51.194;6.856;2023-04-20T04:20:50;6.97;;;3.07;;
19183;SDS011;9724;51.194;6.856;2023-04-20T04:23:17;7.73;;;2.90;;
19183;SDS011;9724;51.194;6.856;2023-04-20T04:25:43;6.17;;;3.77;;
19183;SDS011;9724;51.194;6.856;2023-04-20T04:28:10;6.03;;;3.00;;
19183;SDS011;9724;51.194;6.856;2023-04-20T04:30:37;6.80;;;3.23;;
19183;SDS011;9724;51.194;6.856;2023-04-20T04:33:03;7.10;;;3.10;;
19183;SDS011;9724;51.194;6.856;2023-04-20T04:35:30;5.73;;;3.37;;
19183;SDS011;9724;51.194;6.856;2023-04-20T04:37:57;5.43;;;3.33;;
19183;SDS011;9724;51.194;6.856;2023-04-20T04:40:23;5.93;;;3.17;;
19183;SDS011;9724;51.194;6.856;2023-04-20T04:42:50;5.43;;;3.67;;
19183;SDS011;9724;51.194;6.856;2023-04-20T04:45:16;5.63;;;3.63;;
19183;SDS011;9724;51.194;6.856;2023-04-20T04:47:43;5.60;;;3.77;;
19183;SDS011;9724;51.194;6.856;2023-04-20T04:50:10;5.03;;;3.87;;
19183;SDS011;9724;51.194;6.856;2023-04-20T04:52:37;9.33;;;3.90;;
19183;SDS011;9724;51.194;6.856;2023-04-20T04:55:03;9.30;;;3.80;;
19183;SDS011;9724;51.194;6.856;2023-04-20T04:57:32;3.63;;;3.33;;
19183;SDS011;9724;51.194;6.856;2023-04-20T04:59:58;5.50;;;3.80;;
19183;SDS011;9724;51.194;6.856;2023-04-20T05:02:25;7.73;;;3.63;;
19183;SDS011;9724;51.194;6.856;2023-04-20T05:04:52;9.07;;;3.90;;
19183;SDS011;9724;51.194;6.856;2023-04-20T05:07:18;11.43;;;4.40;;
19183;SDS011;9724;51.194;6.856;2023-04-20T05:09:44;12.13;;;4.90;;
19183;SDS011;9724;51.194;6.856;2023-04-20T05:12:10;6.57;;;4.27;;
19183;SDS011;9724;51.194;6.856;2023-04-20T05:14:37;9.43;;;4.20;;
19183;SDS011;9724;51.194;6.856;2023-04-20T05:17:03;14.80;;;4.67;;
19183;SDS011;9724;51.194;6.856;2023-04-20T05:19:30;8.07;;;4.70;;
19183;SDS011;9724;51.194;6.856;2023-04-20T05:21:56;6.03;;;4.73;;
19183;SDS011;9724;51.194;6.856;2023-04-20T05:24:23;11.00;;;5.17;;
19183;SDS011;9724;51.194;6.856;2023-04-20T05:26:49;12.97;;;5.30;;
19183;SDS011;9724;51.194;6.856;2023-04-20T05:29:15;10.03;;;5.57;;
19183;SDS011;9724;51.194;6.856;2023-04-20T05:31:42;8.73;;;4.93;;
19183;SDS011;9724;51.194;6.856;2023-04-20T05:34:09;8.47;;;4.87;;
19183;SDS011;9724;51.194;6.856;2023-04-20T05:36:35;7.40;;;4.90;;
19183;SDS011;9724;51.194;6.856;2023-04-20T05:39:02;9.60;;;5.40;;
19183;SDS011;9724;51.194;6.856;2023-04-20T05:41:28;8.97;;;5.37;;
19183;SDS011;9724;51.194;6.856;2023-04-20T05:43:55;10.20;;;5.77;;
19183;SDS011;9724;51.194;6.856;2023-04-20T05:46:21;12.13;;;5.70;;
19183;SDS011;9724;51.194;6.856;2023-04-20T05:48:48;12.70;;;5.90;;
19183;SDS011;9724;51.194;6.856;2023-04-20T05:51:14;11.23;;;5.57;;
19183;SDS011;9724;51.194;6.856;2023-04-20T05:53:40;8.17;;;5.27;;
19183;SDS011;9724;51.194;6.856;2023-04-20T05:56:07;8.63;;;5.50;;
19183;SDS011;9724;51.194;6.856;2023-04-20T05:58:34;11.17;;;6.10;;
19183;SDS011;9724;51.194;6.856;2023-04-20T06:01:01;12.77;;;5.60;;
19183;SDS011;9724;51.194;6.856;2023-04-20T06:03:28;10.37;;;5.53;;
19183;SDS011;9724;51.194;6.856;2023-04-20T06:05:55;10.20;;;5.57;;
19183;SDS011;9724;51.194;6.856;2023-04-20T06:08:21;13.90;;;5.83;;
19183;SDS011;9724;51.194;6.856;2023-04-20T06:10:47;9.20;;;5.77;;
19183;SDS011;9724;51.194;6.856;2023-04-20T06:13:14;10.07;;;6.00;;
19183;SDS011;9724;51.194;6.856;2023-04-20T06:15:40;10.13;;;5.60;;
19183;SDS011;9724;51.194;6.856;2023-04-20T06:18:07;8.43;;;5.87;;
19183;SDS011;9724;51.194;6.856;2023-04-20T06:20:33;10.00;;;5.40;;
19183;SDS011;9724;51.194;6.856;2023-04-20T06:22:59;5.40;;;4.90;;
19183;SDS011;9724;51.194;6.856;2023-04-20T06:25:25;7.60;;;5.43;;
19183;SDS011;9724;51.194;6.856;2023-04-20T06:27:52;10.67;;;6.03;;
19183;SDS011;9724;51.194;6.856;2023-04-20T06:30:19;7.93;;;4.83;;
19183;SDS011;9724;51.194;6.856;2023-04-20T06:32:45;9.07;;;4.83;;
19183;SDS011;9724;51.194;6.856;2023-04-20T06:35:12;6.87;;;5.33;;
19183;SDS011;9724;51.194;6.856;2023-04-20T06:37:38;9.70;;;4.83;;
19183;SDS011;9724;51.194;6.856;2023-04-20T06:40:05;7.53;;;4.80;;
19183;SDS011;9724;51.194;6.856;2023-04-20T06:42:32;10.03;;;4.93;;
19183;SDS011;9724;51.194;6.856;2023-04-20T06:44:58;8.43;;;4.83;;
19183;SDS011;9724;51.194;6.856;2023-04-20T06:47:25;15.13;;;5.03;;
19183;SDS011;9724;51.194;6.856;2023-04-20T06:49:56;9.27;;;4.60;;
19183;SDS011;9724;51.194;6.856;2023-04-20T06:52:22;5.80;;;4.67;;
19183;SDS011;9724;51.194;6.856;2023-04-20T06:54:48;5.97;;;4.63;;
19183;SDS011;9724;51.194;6.856;2023-04-20T06:57:14;5.00;;;4.50;;
19183;SDS011;9724;51.194;6.856;2023-04-20T06:59:41;3.90;;;3.60;;
19183;SDS011;9724;51.194;6.856;2023-04-20T07:02:07;4.40;;;4.00;;
19183;SDS011;9724;51.194;6.856;2023-04-20T07:04:34;5.70;;;3.77;;
19183;SDS011;9724;51.194;6.856;2023-04-20T07:07:00;7.13;;;4.00;;
19183;SDS011;9724;51.194;6.856;2023-04-20T07:09:26;4.53;;;4.10;;
19183;SDS011;9724;51.194;6.856;2023-04-20T07:11:52;5.17;;;4.00;;
19183;SDS011;9724;51.194;6.856;2023-04-20T07:14:20;5.30;;;4.20;;
19183;SDS011;9724;51.194;6.856;2023-04-20T07:16:46;7.37;;;3.97;;
19183;SDS011;9724;51.194;6.856;2023-04-20T07:19:12;8.27;;;3.57;;
19183;SDS011;9724;51.194;6.856;2023-04-20T07:21:39;4.30;;;3.90;;
19183;SDS011;9724;51.194;6.856;2023-04-20T07:24:05;8.47;;;3.90;;
19183;SDS011;9724;51.194;6.856;2023-04-20T07:26:32;3.90;;;3.60;;
19183;SDS011;9724;51.194;6.856;2023-04-20T07:28:58;8.00;;;4.43;;
19183;SDS011;9724;51.194;6.856;2023-04-20T07:31:24;5.93;;;4.60;;
19183;SDS011;9724;51.194;6.856;2023-04-20T07:33:50;5.07;;;4.40;;
19183;SDS011;9724;51.194;6.856;2023-04-20T07:36:16;5.50;;;4.63;;
19183;SDS011;9724;51.194;6.856;2023-04-20T07:38:44;8.93;;;4.80;;
19183;SDS011;9724;51.194;6.856;2023-04-20T07:41:11;5.60;;;4.70;;
19183;SDS011;9724;51.194;6.856;2023-04-20T07:43:37;5.13;;;4.03;;
19183;SDS011;9724;51.194;6.856;2023-04-20T07:46:03;5.97;;;4.53;;
19183;SDS011;9724;51.194;6.856;2023-04-20T07:48:30;6.13;;;4.50;;
19183;SDS011;9724;51.194;6.856;2023-04-20T07:50:56;5.17;;;4.10;;
19183;SDS011;9724;51.194;6.856;2023-04-20T07:53:22;6.60;;;4.17;;
19183;SDS011;9724;51.194;6.856;2023-04-20T07:55:49;4.30;;;4.00;;
19183;SDS011;9724;51.194;6.856;2023-04-20T07:58:16;5.20;;;3.83;;
19183;SDS011;9724;51.194;6.856;2023-04-20T08:01:01;5.50;;;4.60;;
19183;SDS011;9724;51.194;6.856;2023-04-20T08:03:27;4.87;;;4.37;;
19183;SDS011;9724;51.194;6.856;2023-04-20T08:05:54;6.93;;;4.63;;
19183;SDS011;9724;51.194;6.856;2023-04-20T08:08:20;4.87;;;4.30;;
19183;SDS011;9724;51.194;6.856;2023-04-20T08:10:46;5.90;;;4.50;;
19183;SDS011;9724;51.194;6.856;2023-04-20T08:13:13;5.40;;;4.17;;
19183;SDS011;9724;51.194;6.856;2023-04-20T08:15:39;5.97;;;4.70;;
19183;SDS011;9724;51.194;6.856;2023-04-20T08:18:06;5.47;;;4.23;;
19183;SDS011;9724;51.194;6.856;2023-04-20T08:20:32;5.80;;;4.00;;
19183;SDS011;9724;51.194;6.856;2023-04-20T08:23:03;6.30;;;4.13;;
19183;SDS011;9724;51.194;6.856;2023-04-20T08:25:30;3.93;;;3.63;;
19183;SDS011;9724;51.194;6.856;2023-04-20T08:27:57;4.77;;;4.17;;
19183;SDS011;9724;51.194;6.856;2023-04-20T08:30:25;6.80;;;4.60;;
19183;SDS011;9724;51.194;6.856;2023-04-20T08:32:51;5.77;;;4.17;;
19183;SDS011;9724;51.194;6.856;2023-04-20T08:35:17;6.53;;;4.07;;
19183;SDS011;9724;51.194;6.856;2023-04-20T08:37:44;6.20;;;4.03;;
19183;SDS011;9724;51.194;6.856;2023-04-20T08:40:11;5.77;;;4.53;;
19183;SDS011;9724;51.194;6.856;2023-04-20T08:42:37;5.23;;;4.10;;
19183;SDS011;9724;51.194;6.856;2023-04-20T08:45:03;5.67;;;4.40;;
19183;SDS011;9724;51.194;6.856;2023-04-20T08:47:31;6.47;;;4.47;;
19183;SDS011;9724;51.194;6.856;2023-04-20T08:49:58;6.80;;;4.87;;
19183;SDS011;9724;51.194;6.856;2023-04-20T08:52:24;8.47;;;5.37;;
19183;SDS011;9724;51.194;6.856;2023-04-20T08:54:51;6.67;;;4.37;;
19183;SDS011;9724;51.194;6.856;2023-04-20T08:57:22;8.30;;;5.53;;
19183;SDS011;9724;51.194;6.856;2023-04-20T08:59:49;6.00;;;5.17;;
19183;SDS011;9724;51.194;6.856;2023-04-20T09:02:15;8.13;;;5.53;;
19183;SDS011;9724;51.194;6.856;2023-04-20T09:04:42;5.77;;;4.73;;
19183;SDS011;9724;51.194;6.856;2023-04-20T09:07:15;11.47;;;5.53;;
19183;SDS011;9724;51.194;6.856;2023-04-20T09:09:52;11.07;;;5.50;;
19183;SDS011;9724;51.194;6.856;2023-04-20T09:12:18;6.37;;;5.63;;
19183;SDS011;9724;51.194;6.856;2023-04-20T09:14:47;7.77;;;6.00;;
19183;SDS011;9724;51.194;6.856;2023-04-20T09:17:13;8.60;;;5.90;;
19183;SDS011;9724;51.194;6.856;2023-04-20T09:19:42;7.73;;;4.83;;
19183;SDS011;9724;51.194;6.856;2023-04-20T09:22:10;6.37;;;5.33;;
19183;SDS011;9724;51.194;6.856;2023-04-20T09:24:37;8.90;;;5.67;;
19183;SDS011;9724;51.194;6.856;2023-04-20T09:27:13;5.63;;;5.03;;
19183;SDS011;9724;51.194;6.856;2023-04-20T09:29:39;8.67;;;5.03;;
19183;SDS011;9724;51.194;6.856;2023-04-20T09:32:06;6.90;;;4.97;;
19183;SDS011;9724;51.194;6.856;2023-04-20T09:34:41;5.60;;;5.00;;
19183;SDS011;9724;51.194;6.856;2023-04-20T09:37:08;7.07;;;5.20;;
19183;SDS011;9724;51.194;6.856;2023-04-20T09:39:35;5.97;;;5.27;;
19183;SDS011;9724;51.194;6.856;2023-04-20T09:42:03;6.27;;;4.63;;
19183;SDS011;9724;51.194;6.856;2023-04-20T09:44:29;5.43;;;4.43;;
19183;SDS011;9724;51.194;6.856;2023-04-20T09:46:57;5.73;;;4.50;;
19183;SDS011;9724;51.194;6.856;2023-04-20T09:49:23;4.50;;;4.00;;
19183;SDS011;9724;51.194;6.856;2023-04-20T09:51:50;4.37;;;3.97;;
19183;SDS011;9724;51.194;6.856;2023-04-20T09:54:17;5.93;;;4.00;;
19183;SDS011;9724;51.194;6.856;2023-04-20T09:56:44;5.10;;;3.80;;
19183;SDS011;9724;51.194;6.856;2023-04-20T09:59:11;5.63;;;3.73;;
19183;SDS011;9724;51.194;6.856;2023-04-20T10:01:37;3.70;;;3.40;;
19183;SDS011;9724;51.194;6.856;2023-04-20T10:04:05;3.50;;;3.20;;
19183;SDS011;9724;51.194;6.856;2023-04-20T10:06:33;3.63;;;3.30;;
19183;SDS011;9724;51.194;6.856;2023-04-20T10:09:01;3.80;;;2.80;;
19183;SDS011;9724;51.194;6.856;2023-04-20T10:11:29;5.00;;;3.33;;
19183;SDS011;9724;51.194;6.856;2023-04-20T10:14:13;4.43;;;3.20;;
19183;SDS011;9724;51.194;6.856;2023-04-20T10:16:41;3.60;;;3.27;;
19183;SDS011;9724;51.194;6.856;2023-04-20T10:19:07;3.50;;;3.10;;
19183;SDS011;9724;51.194;6.856;2023-04-20T10:21:43;4.23;;;3.20;;
19183;SDS011;9724;51.194;6.856;2023-04-20T10:24:10;3.40;;;3.10;;
19183;SDS011;9724;51.194;6.856;2023-04-20T10:26:37;3.77;;;3.40;;
19183;SDS011;9724;51.194;6.856;2023-04-20T10:29:04;5.03;;;3.40;;
19183;SDS011;9724;51.194;6.856;2023-04-20T10:31:34;3.40;;;3.10;;
19183;SDS011;9724;51.194;6.856;2023-04-20T10:34:02;3.50;;;3.20;;
19183;SDS011;9724;51.194;6.856;2023-04-20T10:36:28;2.80;;;2.60;;
19183;SDS011;9724;51.194;6.856;2023-04-20T10:38:55;3.13;;;2.57;;
19183;SDS011;9724;51.194;6.856;2023-04-20T10:41:22;2.40;;;2.30;;
19183;SDS011;9724;51.194;6.856;2023-04-20T10:43:49;2.50;;;2.30;;
19183;SDS011;9724;51.194;6.856;2023-04-20T10:46:15;2.83;;;2.63;;
19183;SDS011;9724;51.194;6.856;2023-04-20T10:48:48;2.80;;;2.60;;
19183;SDS011;9724;51.194;6.856;2023-04-20T10:51:18;3.10;;;2.90;;
19183;SDS011;9724;51.194;6.856;2023-04-20T10:53:44;4.47;;;2.80;;
19183;SDS011;9724;51.194;6.856;2023-04-20T10:56:11;3.97;;;3.43;;
19183;SDS011;9724;51.194;6.856;2023-04-20T10:58:37;4.97;;;3.90;;
19183;SDS011;9724;51.194;6.856;2023-04-20T11:01:05;3.97;;;3.10;;
19183;SDS011;9724;51.194;6.856;2023-04-20T11:03:31;5.93;;;3.40;;
19183;SDS011;9724;51.194;6.856;2023-04-20T11:05:59;3.37;;;3.10;;
19183;SDS011;9724;51.194;6.856;2023-04-20T11:08:36;2.90;;;2.70;;
19183;SDS011;9724;51.194;6.856;2023-04-20T11:11:03;3.43;;;3.23;;
19183;SDS011;9724;51.194;6.856;2023-04-20T11:13:30;3.87;;;2.40;;
19183;SDS011;9724;51.194;6.856;2023-04-20T11:15:57;3.00;;;2.80;;
19183;SDS011;9724;51.194;6.856;2023-04-20T11:18:24;2.70;;;2.50;;
19183;SDS011;9724;51.194;6.856;2023-04-20T11:20:50;3.47;;;2.63;;
19183;SDS011;9724;51.194;6.856;2023-04-20T11:23:17;2.20;;;2.10;;
19183;SDS011;9724;51.194;6.856;2023-04-20T11:25:47;2.37;;;2.27;;
19183;SDS011;9724;51.194;6.856;2023-04-20T11:28:14;2.10;;;1.97;;
19183;SDS011;9724;51.194;6.856;2023-04-20T11:30:40;2.00;;;1.90;;
19183;SDS011;9724;51.194;6.856;2023-04-20T11:33:06;1.90;;;1.87;;
19183;SDS011;9724;51.194;6.856;2023-04-20T11:35:35;2.07;;;1.97;;
19183;SDS011;9724;51.194;6.856;2023-04-20T11:38:02;2.47;;;2.23;;
19183;SDS011;9724;51.194;6.856;2023-04-20T11:40:29;1.90;;;1.80;;
19183;SDS011;9724;51.194;6.856;2023-04-20T11:42:55;1.60;;;1.60;;
19183;SDS011;9724;51.194;6.856;2023-04-20T11:45:22;2.03;;;1.83;;
19183;SDS011;9724;51.194;6.856;2023-04-20T11:47:48;2.17;;;2.07;;
19183;SDS011;9724;51.194;6.856;2023-04-20T11:50:15;1.80;;;1.70;;
19183;SDS011;9724;51.194;6.856;2023-04-20T11:52:42;1.70;;;1.70;;
19183;SDS011;9724;51.194;6.856;2023-04-20T11:55:08;2.77;;;1.60;;
19183;SDS011;9724;51.194;6.856;2023-04-20T11:57:35;2.67;;;1.50;;
19183;SDS011;9724;51.194;6.856;2023-04-20T12:00:02;1.63;;;1.63;;
19183;SDS011;9724;51.194;6.856;2023-04-20T12:02:28;1.70;;;1.60;;
19183;SDS011;9724;51.194;6.856;2023-04-20T12:04:55;1.60;;;1.50;;
19183;SDS011;9724;51.194;6.856;2023-04-20T12:07:21;1.43;;;1.37;;
19183;SDS011;9724;51.194;6.856;2023-04-20T12:09:48;1.60;;;1.50;;
19183;SDS011;9724;51.194;6.856;2023-04-20T12:12:14;1.40;;;1.40;;
19183;SDS011;9724;51.194;6.856;2023-04-20T12:14:40;1.60;;;1.57;;
19183;SDS011;9724;51.194;6.856;2023-04-20T12:17:06;1.43;;;1.43;;
19183;SDS011;9724;51.194;6.856;2023-04-20T12:19:33;1.60;;;1.50;;
19183;SDS011;9724;51.194;6.856;2023-04-20T12:21:59;2.17;;;1.97;;
19183;SDS011;9724;51.194;6.856;2023-04-20T12:24:25;2.10;;;1.60;;
19183;SDS011;9724;51.194;6.856;2023-04-20T12:26:52;1.70;;;1.70;;
19183;SDS011;9724;51.194;6.856;2023-04-20T12:29:18;1.70;;;1.60;;
19183;SDS011;9724;51.194;6.856;2023-04-20T12:31:45;1.80;;;1.70;;
19183;SDS011;9724;51.194;6.856;2023-04-20T12:34:12;2.10;;;2.00;;
19183;SDS011;9724;51.194;6.856;2023-04-20T12:36:38;2.43;;;2.20;;
19183;SDS011;9724;51.194;6.856;2023-04-20T12:39:04;5.93;;;2.27;;
19183;SDS011;9724;51.194;6.856;2023-04-20T12:41:30;2.70;;;2.50;;
19183;SDS011;9724;51.194;6.856;2023-04-20T12:43:58;2.50;;;2.30;;
19183;SDS011;9724;51.194;6.856;2023-04-20T12:46:24;3.73;;;2.27;;
19183;SDS011;9724;51.194;6.856;2023-04-20T12:48:50;2.73;;;2.33;;
19183;SDS011;9724;51.194;6.856;2023-04-20T12:51:17;2.97;;;2.77;;
19183;SDS011;9724;51.194;6.856;2023-04-20T12:53:43;3.00;;;2.70;;
19183;SDS011;9724;51.194;6.856;2023-04-20T12:56:09;3.20;;;2.83;;
19183;SDS011;9724;51.194;6.856;2023-04-20T12:58:35;6.10;;;3.50;;
19183;SDS011;9724;51.194;6.856;2023-04-20T13:01:02;3.43;;;2.67;;
19183;SDS011;9724;51.194;6.856;2023-04-20T13:03:28;3.87;;;2.90;;
19183;SDS011;9724;51.194;6.856;2023-04-20T13:05:55;2.83;;;2.63;;
19183;SDS011;9724;51.194;6.856;2023-04-20T13:08:21;2.83;;;2.63;;
19183;SDS011;9724;51.194;6.856;2023-04-20T13:10:47;3.13;;;2.67;;
19183;SDS011;9724;51.194;6.856;2023-04-20T13:13:13;6.30;;;3.27;;
19183;SDS011;9724;51.194;6.856;2023-04-20T13:15:40;4.37;;;2.70;;
19183;SDS011;9724;51.194;6.856;2023-04-20T13:18:07;5.57;;;3.00;;
19183;SDS011;9724;51.194;6.856;2023-04-20T13:20:34;3.63;;;2.83;;
19183;SDS011;9724;51.194;6.856;2023-04-20T13:23:01;3.90;;;3.10;;
19183;SDS011;9724;51.194;6.856;2023-04-20T13:25:28;3.83;;;3.10;;
19183;SDS011;9724;51.194;6.856;2023-04-20T13:27:57;5.20;;;3.23;;
19183;SDS011;9724;51.194;6.856;2023-04-20T13:30:23;3.13;;;2.83;;
19183;SDS011;9724;51.194;6.856;2023-04-20T13:32:50;4.90;;;3.03;;
19183;SDS011;9724;51.194;6.856;2023-04-20T13:35:18;4.80;;;3.33;;
19183;SDS011;9724;51.194;6.856;2023-04-20T13:37:44;4.30;;;3.20;;
19183;SDS011;9724;51.194;6.856;2023-04-20T13:40:10;3.70;;;3.40;;
19183;SDS011;9724;51.194;6.856;2023-04-20T13:42:37;4.80;;;3.30;;
19183;SDS011;9724;51.194;6.856;2023-04-20T13:45:04;6.40;;;3.70;;
19183;SDS011;9724;51.194;6.856;2023-04-20T13:47:31;5.40;;;3.47;;
19183;SDS011;9724;51.194;6.856;2023-04-20T13:49:57;4.60;;;3.33;;
19183;SDS011;9724;51.194;6.856;2023-04-20T13:52:24;4.47;;;3.60;;
19183;SDS011;9724;51.194;6.856;2023-04-20T13:54:50;4.27;;;3.43;;
19183;SDS011;9724;51.194;6.856;2023-04-20T13:57:16;3.60;;;3.30;;
19183;SDS011;9724;51.194;6.856;2023-04-20T13:59:43;4.13;;;3.33;;
19183;SDS011;9724;51.194;6.856;2023-04-20T14:02:09;5.33;;;3.20;;
19183;SDS011;9724;51.194;6.856;2023-04-20T14:04:35;3.67;;;3.27;;
19183;SDS011;9724;51.194;6.856;2023-04-20T14:07:01;4.00;;;3.47;;
19183;SDS011;9724;51.194;6.856;2023-04-20T14:09:29;3.60;;;3.00;;
19183;SDS011;9724;51.194;6.856;2023-04-20T14:11:56;4.20;;;3.20;;
19183;SDS011;9724;51.194;6.856;2023-04-20T14:14:22;3.90;;;3.20;;
19183;SDS011;9724;51.194;6.856;2023-04-20T14:16:49;5.03;;;3.57;;
19183;SDS011;9724;51.194;6.856;2023-04-20T14:19:15;4.93;;;3.60;;
19183;SDS011;9724;51.194;6.856;2023-04-20T14:21:41;4.00;;;3.33;;
19183;SDS011;9724;51.194;6.856;2023-04-20T14:24:08;3.90;;;3.50;;
19183;SDS011;9724;51.194;6.856;2023-04-20T14:26:36;3.30;;;3.10;;
19183;SDS011;9724;51.194;6.856;2023-04-20T14:29:02;3.53;;;3.23;;
19183;SDS011;9724;51.194;6.856;2023-04-20T14:31:29;3.57;;;3.27;;
19183;SDS011;9724;51.194;6.856;2023-04-20T14:33:56;3.30;;;3.07;;
19183;SDS011;9724;51.194;6.856;2023-04-20T14:36:22;4.47;;;3.23;;
19183;SDS011;9724;51.194;6.856;2023-04-20T14:38:48;3.33;;;3.07;;
19183;SDS011;9724;51.194;6.856;2023-04-20T14:41:14;5.73;;;3.40;;
19183;SDS011;9724;51.194;6.856;2023-04-20T14:43:41;4.80;;;3.60;;
19183;SDS011;9724;51.194;6.856;2023-04-20T14:46:08;7.13;;;3.80;;
19183;SDS011;9724;51.194;6.856;2023-04-20T14:48:34;4.40;;;4.00;;
19183;SDS011;9724;51.194;6.856;2023-04-20T14:51:02;3.50;;;3.20;;
19183;SDS011;9724;51.194;6.856;2023-04-20T14:53:28;8.00;;;3.73;;
19183;SDS011;9724;51.194;6.856;2023-04-20T14:55:57;5.07;;;3.83;;
19183;SDS011;9724;51.194;6.856;2023-04-20T14:58:23;4.50;;;3.90;;